Time;durP1;ratioP1;P1;durP2;ratioP2;P2;SDS_P1;SDS_P2;PMS_P1;PMS_P2;Temp;Humidity;BMP_temperature;BMP_pressure;BME280_temperature;BME280_humidity;BME280_pressure;Samples;Min_cycle;Max_cycle;Signal;HPM_P1;HPM_P2
2022/12/13 00:00:31;;;;;;;28.63;17.73;;;-2.30;99.90;;;;;;5113514;28;20553;-61
2022/12/13 00:02:58;;;;;;;30.97;18.87;;;-2.30;99.90;;;;;;5113842;28;20850;-61
2022/12/13 00:05:25;;;;;;;26.13;17.17;;;-2.30;99.90;;;;;;5113503;28;20986;-61
2022/12/13 00:07:52;;;;;;;25.63;16.70;;;-2.30;99.90;;;;;;5113796;28;20980;-61
2022/12/13 00:10:21;;;;;;;27.50;17.47;;;-2.30;99.90;;;;;;5113391;28;20498;-60
2022/12/13 00:12:48;;;;;;;25.13;17.40;;;-2.30;99.90;;;;;;5113438;28;20866;-60
2022/12/13 00:15:16;;;;;;;24.87;17.10;;;-2.30;99.90;;;;;;5113411;28;20446;-62
2022/12/13 00:17:44;;;;;;;26.57;17.23;;;-2.40;99.90;;;;;;5113863;28;20439;-61
2022/12/13 00:20:12;;;;;;;26.10;16.50;;;-2.40;99.90;;;;;;5113878;28;20887;-61
2022/12/13 00:22:39;;;;;;;24.83;17.07;;;-2.40;99.90;;;;;;5113706;28;20447;-61
2022/12/13 00:25:07;;;;;;;24.27;18.10;;;-2.40;99.90;;;;;;5113368;28;20478;-61
2022/12/13 00:27:36;;;;;;;22.93;17.07;;;-2.40;99.90;;;;;;5113209;28;20980;-61
2022/12/13 00:30:03;;;;;;;24.20;17.40;;;-2.40;99.90;;;;;;5113240;28;20467;-61
2022/12/13 00:32:31;;;;;;;28.43;20.00;;;-2.40;99.90;;;;;;5113672;28;20482;-60
2022/12/13 00:34:58;;;;;;;25.97;17.03;;;-2.40;99.90;;;;;;5113642;28;20489;-61
2022/12/13 00:37:25;;;;;;;27.83;20.20;;;-2.50;99.90;;;;;;5113096;28;20517;-61
2022/12/13 00:39:53;;;;;;;27.60;18.10;;;-2.50;99.90;;;;;;5113244;28;20858;-61
2022/12/13 00:42:20;;;;;;;25.30;18.07;;;-2.50;99.90;;;;;;5113268;28;20492;-60
2022/12/13 00:44:49;;;;;;;28.07;17.73;;;-2.40;99.90;;;;;;5113582;28;20853;-60
2022/12/13 00:47:17;;;;;;;34.90;20.10;;;-2.50;99.90;;;;;;5113519;28;20510;-61
2022/12/13 00:49:45;;;;;;;27.40;19.23;;;-2.50;99.90;;;;;;5113387;28;20473;-61
2022/12/13 00:52:12;;;;;;;25.93;17.90;;;-2.50;99.90;;;;;;5113194;28;20503;-61
2022/12/13 00:54:39;;;;;;;21.83;16.70;;;-2.50;99.90;;;;;;5113461;28;20474;-60
2022/12/13 00:57:06;;;;;;;30.30;18.93;;;-2.40;99.90;;;;;;5113399;28;20473;-60
2022/12/13 00:59:34;;;;;;;27.23;20.40;;;-2.40;99.90;;;;;;5113057;28;20474;-60
2022/12/13 01:02:02;;;;;;;22.40;18.33;;;-2.40;99.90;;;;;;5113917;28;20446;-60
2022/12/13 01:04:30;;;;;;;26.53;17.70;;;-2.50;99.90;;;;;;5116735;28;20442;-60
2022/12/13 01:06:57;;;;;;;28.87;19.43;;;-2.40;99.90;;;;;;5116941;28;20455;-60
2022/12/13 01:09:28;;;;;;;27.10;19.60;;;-2.40;99.90;;;;;;5116590;28;20462;-60
2022/12/13 01:11:58;;;;;;;25.53;18.80;;;-2.40;99.90;;;;;;5117160;28;20427;-62
2022/12/13 01:14:26;;;;;;;32.33;19.07;;;-2.40;99.90;;;;;;5116488;28;20446;-60
2022/12/13 01:16:54;;;;;;;26.47;19.17;;;-2.40;99.90;;;;;;5116723;28;20470;-59
2022/12/13 01:19:23;;;;;;;30.23;20.97;;;-2.50;99.90;;;;;;5117004;28;20555;-60
2022/12/13 01:21:54;;;;;;;31.33;18.43;;;-2.60;99.90;;;;;;5116348;28;20499;-60
2022/12/13 01:24:23;;;;;;;26.77;19.40;;;-2.70;99.90;;;;;;5116743;28;20431;-60
2022/12/13 01:26:52;;;;;;;26.30;18.40;;;-2.70;99.90;;;;;;5116310;28;20495;-60
2022/12/13 01:29:20;;;;;;;27.33;21.10;;;-2.70;99.90;;;;;;5116474;28;20517;-60
2022/12/13 01:31:48;;;;;;;26.80;17.90;;;-2.70;99.90;;;;;;5116138;28;20925;-61
2022/12/13 01:34:17;;;;;;;26.77;18.30;;;-2.80;99.90;;;;;;5116518;28;20470;-60
2022/12/13 01:36:47;;;;;;;23.03;17.00;;;-2.80;99.90;;;;;;5116181;28;20535;-60
2022/12/13 01:39:19;;;;;;;24.93;19.33;;;-2.80;99.90;;;;;;5115966;28;20478;-60
2022/12/13 01:41:48;;;;;;;32.13;19.57;;;-2.80;99.90;;;;;;5116011;28;20450;-61
2022/12/13 01:45:08;;;;;;;24.40;19.70;;;-2.80;99.90;;;;;;5115910;28;20504;-60
2022/12/13 01:47:39;;;;;;;24.37;17.80;;;-2.70;99.90;;;;;;5053105;28;20515;-60
2022/12/13 01:50:10;;;;;;;29.30;18.30;;;-2.80;99.90;;;;;;5053216;28;20544;-60
2022/12/13 01:52:40;;;;;;;26.07;18.43;;;-2.80;99.90;;;;;;5084637;28;20530;-60
2022/12/13 01:55:09;;;;;;;31.80;19.33;;;-3.00;99.90;;;;;;5116092;28;20474;-60
2022/12/13 01:57:40;;;;;;;27.53;19.00;;;-3.10;99.90;;;;;;5115929;28;20492;-60
2022/12/13 02:00:09;;;;;;;25.07;18.50;;;-3.20;99.90;;;;;;5115647;28;20555;-61
2022/12/13 02:02:37;;;;;;;25.17;17.83;;;-3.10;99.90;;;;;;5115944;28;20446;-61
2022/12/13 02:05:11;;;;;;;27.27;18.97;;;-3.10;99.90;;;;;;5115689;28;20995;-60
2022/12/13 02:07:43;;;;;;;26.00;18.53;;;-3.00;99.90;;;;;;5115746;28;20479;-62
2022/12/13 02:10:11;;;;;;;36.87;21.80;;;-3.00;99.90;;;;;;5115477;28;20465;-61
2022/12/13 02:12:40;;;;;;;29.27;20.57;;;-2.90;99.90;;;;;;5115239;28;20454;-61
2022/12/13 02:15:11;;;;;;;30.33;19.50;;;-3.00;99.90;;;;;;5115579;28;20447;-61
2022/12/13 02:17:54;;;;;;;28.30;18.17;;;-3.10;99.90;;;;;;5115460;28;20486;-61
2022/12/13 02:20:54;;;;;;;30.20;18.27;;;-3.10;99.90;;;;;;5115438;28;20472;-61
2022/12/13 02:23:49;;;;;;;35.50;19.90;;;-3.20;99.90;;;;;;5111328;28;20446;-62
2022/12/13 02:26:43;;;;;;;29.60;18.47;;;-3.20;99.90;;;;;;5115050;28;20419;-60
2022/12/13 02:29:30;;;;;;;30.43;19.47;;;-3.30;99.90;;;;;;5101941;28;20497;-61
2022/12/13 02:32:07;;;;;;;28.23;18.97;;;-3.30;99.90;;;;;;5115178;28;20431;-61
2022/12/13 02:34:39;;;;;;;21.37;16.30;;;-3.30;99.90;;;;;;5115024;28;20484;-62
2022/12/13 02:37:11;;;;;;;30.30;19.80;;;-3.30;99.90;;;;;;5114628;28;20497;-61
2022/12/13 02:39:44;;;;;;;26.70;18.90;;;-3.40;99.90;;;;;;5115239;28;20494;-61
2022/12/13 02:42:18;;;;;;;25.93;17.57;;;-3.40;99.90;;;;;;5114937;28;20467;-61
2022/12/13 02:44:51;;;;;;;26.90;19.30;;;-3.40;99.90;;;;;;5114700;28;20884;-60
2022/12/13 02:47:23;;;;;;;31.27;18.90;;;-3.20;99.90;;;;;;5114655;28;20423;-61
2022/12/13 02:49:55;;;;;;;23.73;17.87;;;-3.20;99.90;;;;;;5114968;28;20864;-60
2022/12/13 02:52:27;;;;;;;25.20;19.70;;;-3.20;99.90;;;;;;5115041;28;20431;-61
2022/12/13 02:54:55;;;;;;;25.60;17.93;;;-3.10;99.90;;;;;;5114945;28;20434;-61
2022/12/13 02:57:31;;;;;;;28.20;18.07;;;-3.20;99.90;;;;;;5115016;28;20848;-60
2022/12/13 03:00:03;;;;;;;23.23;16.80;;;-3.10;99.90;;;;;;5114444;28;20466;-61
2022/12/13 03:02:42;;;;;;;28.77;19.23;;;-3.10;99.90;;;;;;5114586;28;20908;-60
2022/12/13 03:08:18;;;;;;;30.83;20.73;;;-3.30;99.90;;;;;;5114457;28;20886;-60
2022/12/13 03:10:59;;;;;;;27.10;19.30;;;-3.40;99.90;;;;;;5114226;28;20469;-60
2022/12/13 03:13:37;;;;;;;25.67;18.30;;;-3.30;99.90;;;;;;5114284;28;20466;-60
2022/12/13 03:16:12;;;;;;;28.00;18.70;;;-3.40;99.90;;;;;;5114274;28;20426;-60
2022/12/13 03:18:42;;;;;;;28.00;19.33;;;-3.60;99.90;;;;;;5114452;28;20422;-60
2022/12/13 03:21:11;;;;;;;24.60;16.73;;;-3.50;99.90;;;;;;5114227;28;20466;-60
2022/12/13 03:23:39;;;;;;;25.47;17.43;;;-3.60;99.90;;;;;;5114490;28;20499;-60
2022/12/13 03:26:11;;;;;;;22.17;17.73;;;-3.60;99.90;;;;;;5113694;28;20982;-60
2022/12/13 03:28:39;;;;;;;33.43;20.83;;;-3.60;99.90;;;;;;5113917;28;20545;-60
2022/12/13 03:31:07;;;;;;;25.50;17.57;;;-3.60;99.90;;;;;;5113899;28;20546;-61
2022/12/13 03:33:34;;;;;;;28.43;18.23;;;-3.50;99.90;;;;;;5114120;28;20944;-61
2022/12/13 03:36:03;;;;;;;27.33;18.70;;;-3.50;99.90;;;;;;5114277;28;20780;-61
2022/12/13 03:38:31;;;;;;;33.23;20.00;;;-3.60;99.90;;;;;;5113740;28;20500;-60
2022/12/13 03:41:02;;;;;;;23.70;17.20;;;-3.70;99.90;;;;;;5113928;28;20470;-61
2022/12/13 03:43:30;;;;;;;30.43;19.60;;;-3.60;99.90;;;;;;5114097;28;20454;-61
2022/12/13 03:45:57;;;;;;;26.20;18.50;;;-3.50;99.90;;;;;;5113999;28;20516;-61
2022/12/13 03:48:25;;;;;;;25.53;19.33;;;-3.50;99.90;;;;;;5114005;28;20481;-62
2022/12/13 03:50:54;;;;;;;28.10;18.10;;;-3.60;99.90;;;;;;5114065;28;20870;-61
2022/12/13 03:53:24;;;;;;;25.93;17.47;;;-3.60;99.90;;;;;;5113692;28;20998;-61
2022/12/13 03:55:51;;;;;;;31.43;18.37;;;-3.60;99.90;;;;;;5114212;28;20427;-60
2022/12/13 03:58:19;;;;;;;29.80;18.50;;;-3.70;99.90;;;;;;5113984;28;20451;-60
2022/12/13 04:00:46;;;;;;;26.00;19.07;;;-3.80;99.90;;;;;;5113623;28;20519;-60
2022/12/13 04:03:13;;;;;;;27.20;17.47;;;-3.70;99.90;;;;;;5113792;28;20446;-61
2022/12/13 04:05:41;;;;;;;26.90;18.57;;;-3.80;99.90;;;;;;5113945;28;20453;-60
2022/12/13 04:08:08;;;;;;;29.70;18.27;;;-3.80;99.90;;;;;;5113943;28;20622;-60
2022/12/13 04:10:37;;;;;;;26.50;17.30;;;-3.80;99.90;;;;;;5113878;28;20471;-60
2022/12/13 04:15:52;;;;;;;28.03;17.47;;;-4.00;99.90;;;;;;5113848;28;20757;-62
2022/12/13 04:18:20;;;;;;;26.97;18.20;;;-3.90;99.90;;;;;;5113763;28;20445;-59
2022/12/13 04:20:48;;;;;;;25.70;17.53;;;-3.90;99.90;;;;;;5113454;28;20458;-60
2022/12/13 04:23:16;;;;;;;29.50;18.03;;;-3.90;99.90;;;;;;5113581;28;20443;-60
2022/12/13 04:25:45;;;;;;;26.50;18.13;;;-3.90;99.90;;;;;;5113774;28;20451;-61
2022/12/13 04:28:13;;;;;;;26.30;19.33;;;-3.90;99.90;;;;;;5113307;28;20531;-61
2022/12/13 04:30:40;;;;;;;26.10;18.33;;;-3.80;99.90;;;;;;5113406;28;20505;-60
2022/12/13 04:33:07;;;;;;;33.10;19.60;;;-3.70;99.90;;;;;;5113336;28;20442;-60
2022/12/13 04:35:35;;;;;;;22.97;15.70;;;-3.60;99.90;;;;;;5113385;28;20450;-61
2022/12/13 04:38:02;;;;;;;24.20;17.90;;;-3.60;99.90;;;;;;5116095;28;20982;-61
2022/12/13 04:40:29;;;;;;;29.60;19.13;;;-3.60;99.90;;;;;;5117188;28;20473;-61
2022/12/13 04:42:58;;;;;;;29.80;19.73;;;-3.70;99.90;;;;;;5117082;28;20443;-60
2022/12/13 04:45:26;;;;;;;28.70;18.67;;;-3.70;99.90;;;;;;5117444;28;20442;-61
2022/12/13 04:47:54;;;;;;;26.67;18.63;;;-3.70;99.90;;;;;;5116942;28;20450;-62
2022/12/13 04:50:21;;;;;;;27.60;17.97;;;-3.70;99.90;;;;;;5117018;28;20466;-61
2022/12/13 04:52:48;;;;;;;22.50;18.93;;;-3.70;99.90;;;;;;5116965;28;20442;-62
2022/12/13 04:55:16;;;;;;;29.97;20.20;;;-3.60;99.90;;;;;;5116996;28;20446;-61
2022/12/13 04:57:43;;;;;;;26.47;17.83;;;-3.80;99.90;;;;;;5117033;28;20445;-61
2022/12/13 05:00:14;;;;;;;26.93;16.83;;;-3.90;99.90;;;;;;5116911;28;20469;-61
2022/12/13 05:02:42;;;;;;;32.40;19.70;;;-3.90;99.90;;;;;;5117110;28;20427;-60
2022/12/13 05:05:10;;;;;;;24.83;15.63;;;-3.80;99.90;;;;;;5117264;28;20880;-60
2022/12/13 05:07:39;;;;;;;29.27;16.80;;;-3.90;99.90;;;;;;5116861;28;20535;-60
2022/12/13 05:10:07;;;;;;;26.40;16.83;;;-3.80;99.90;;;;;;5116944;28;20486;-61
2022/12/13 05:12:34;;;;;;;27.50;16.97;;;-3.80;99.90;;;;;;5116595;28;20472;-60
2022/12/13 05:15:02;;;;;;;24.83;17.77;;;-3.80;99.90;;;;;;5116657;28;20452;-60
2022/12/13 05:17:30;;;;;;;22.10;15.73;;;-4.00;99.90;;;;;;5116873;28;20783;-60
2022/12/13 05:19:58;;;;;;;22.03;15.83;;;-3.90;99.90;;;;;;5116770;28;20492;-60
2022/12/13 05:22:25;;;;;;;31.23;17.97;;;-4.00;99.90;;;;;;5116387;28;20447;-61
2022/12/13 05:24:53;;;;;;;24.47;17.10;;;-4.20;99.90;;;;;;5116310;28;20446;-61
2022/12/13 05:27:20;;;;;;;26.60;17.40;;;-4.20;99.90;;;;;;5116501;28;20478;-61
2022/12/13 05:29:47;;;;;;;26.67;15.07;;;-4.30;99.90;;;;;;5116403;28;20895;-61
2022/12/13 05:32:15;;;;;;;27.37;17.17;;;-4.30;99.90;;;;;;5116210;28;20453;-60
2022/12/13 05:34:44;;;;;;;22.50;16.20;;;-4.20;99.90;;;;;;5116125;28;20967;-61
2022/12/13 05:37:11;;;;;;;22.97;15.37;;;-4.20;99.90;;;;;;5115890;28;20951;-61
2022/12/13 05:39:38;;;;;;;28.47;17.57;;;-4.20;99.90;;;;;;5116385;28;20454;-60
2022/12/13 05:42:06;;;;;;;23.23;15.77;;;-4.10;99.90;;;;;;5115992;28;20478;-61
2022/12/13 05:44:33;;;;;;;27.00;18.10;;;-3.90;99.90;;;;;;5115830;28;20451;-62
2022/12/13 05:47:30;;;;;;;22.83;16.80;;;-3.80;99.90;;;;;;5116034;28;20450;-60
2022/12/13 05:50:21;;;;;;;23.93;17.17;;;-3.80;99.90;;;;;;5115638;28;20573;-60
2022/12/13 05:52:49;;;;;;;23.07;15.37;;;-3.80;99.90;;;;;;5115254;28;20525;-60
2022/12/13 05:55:52;;;;;;;22.93;14.80;;;-3.80;99.90;;;;;;5115753;28;20453;-61
2022/12/13 05:58:34;;;;;;;28.90;17.57;;;-3.90;99.90;;;;;;5111309;28;20446;-61
2022/12/13 06:01:29;;;;;;;21.77;15.77;;;-4.00;99.90;;;;;;5114947;28;21102;-60
2022/12/13 06:03:56;;;;;;;21.00;15.20;;;-3.90;99.90;;;;;;5115527;28;20455;-61
2022/12/13 06:06:25;;;;;;;31.97;17.60;;;-3.80;99.90;;;;;;5115904;28;20447;-60
2022/12/13 06:08:52;;;;;;;22.77;15.67;;;-3.90;99.90;;;;;;5115594;28;20474;-59
2022/12/13 06:11:20;;;;;;;25.13;16.60;;;-3.90;99.90;;;;;;5115402;28;20499;-59
2022/12/13 06:13:51;;;;;;;23.90;14.30;;;-4.00;99.90;;;;;;5115542;28;20790;-59
2022/12/13 06:16:18;;;;;;;25.27;17.07;;;-4.00;99.90;;;;;;5115568;28;20449;-59
2022/12/13 06:18:46;;;;;;;26.27;16.47;;;-4.00;99.90;;;;;;5115278;28;20438;-59
2022/12/13 06:21:13;;;;;;;22.67;16.00;;;-4.00;99.90;;;;;;5115576;28;20451;-60
2022/12/13 06:23:42;;;;;;;24.67;14.57;;;-4.10;99.90;;;;;;5115361;28;20788;-60
2022/12/13 06:26:09;;;;;;;25.27;14.30;;;-4.10;99.90;;;;;;5115383;28;20463;-59
2022/12/13 06:28:37;;;;;;;20.13;15.57;;;-4.00;99.90;;;;;;5114869;28;20451;-60
2022/12/13 06:31:05;;;;;;;20.53;15.67;;;-4.00;99.90;;;;;;5114760;28;20531;-60
2022/12/13 06:33:35;;;;;;;20.30;14.53;;;-4.00;99.90;;;;;;5114930;28;20442;-60
2022/12/13 06:36:03;;;;;;;19.00;14.60;;;-3.90;99.90;;;;;;5114645;28;20423;-60
2022/12/13 06:38:31;;;;;;;20.60;14.27;;;-4.00;99.90;;;;;;5114776;28;20884;-59
2022/12/13 06:41:09;;;;;;;24.73;15.83;;;-4.00;99.90;;;;;;5114577;28;20458;-60
2022/12/13 06:43:37;;;;;;;17.37;14.40;;;-3.90;99.90;;;;;;5114547;28;20431;-59
2022/12/13 06:46:05;;;;;;;23.30;14.53;;;-4.00;99.90;;;;;;5114530;28;20766;-59
2022/12/13 06:48:33;;;;;;;25.83;18.00;;;-4.00;99.90;;;;;;5114671;28;20442;-60
2022/12/13 06:51:01;;;;;;;23.43;15.23;;;-4.10;99.90;;;;;;5114407;28;20466;-60
2022/12/13 06:53:29;;;;;;;22.60;16.40;;;-4.10;99.90;;;;;;5114730;28;20454;-60
2022/12/13 06:55:57;;;;;;;21.07;15.33;;;-4.20;99.90;;;;;;5114319;28;20447;-60
2022/12/13 06:58:26;;;;;;;24.70;14.47;;;-4.10;99.90;;;;;;5114187;28;20462;-59
2022/12/13 07:01:01;;;;;;;26.37;16.90;;;-4.10;99.90;;;;;;5113320;28;20469;-59
2022/12/13 07:03:30;;;;;;;27.13;16.07;;;-4.10;99.90;;;;;;5114351;28;20480;-59
2022/12/13 07:05:59;;;;;;;22.90;15.77;;;-4.20;99.90;;;;;;5114502;28;20814;-59
2022/12/13 07:08:26;;;;;;;23.17;15.50;;;-4.30;99.90;;;;;;5114756;28;20454;-60
2022/12/13 07:10:54;;;;;;;22.40;15.10;;;-4.30;99.90;;;;;;5114375;28;20498;-59
2022/12/13 07:13:22;;;;;;;21.03;15.73;;;-4.30;99.90;;;;;;5114239;28;20808;-59
2022/12/13 07:15:51;;;;;;;24.70;16.50;;;-4.20;99.90;;;;;;5114121;28;20511;-59
2022/12/13 07:18:19;;;;;;;21.93;15.40;;;-4.10;99.90;;;;;;5113690;28;21038;-59
2022/12/13 07:20:46;;;;;;;22.13;15.37;;;-4.20;99.90;;;;;;5113776;28;20470;-59
2022/12/13 07:23:14;;;;;;;25.80;17.97;;;-4.00;99.90;;;;;;5113752;28;20450;-60
2022/12/13 07:25:41;;;;;;;23.40;15.50;;;-4.10;99.90;;;;;;5114114;28;20447;-60
2022/12/13 07:28:09;;;;;;;21.77;16.47;;;-4.10;99.90;;;;;;5113991;28;20446;-60
2022/12/13 07:30:38;;;;;;;23.90;15.50;;;-4.10;99.90;;;;;;5113821;28;20902;-60
2022/12/13 07:33:07;;;;;;;25.87;14.77;;;-4.10;99.90;;;;;;5113723;28;21054;-60
2022/12/13 07:35:35;;;;;;;25.90;16.63;;;-4.00;99.90;;;;;;5113679;28;20964;-60
2022/12/13 07:38:02;;;;;;;25.67;16.60;;;-3.90;99.90;;;;;;5113641;28;20506;-60
2022/12/13 07:40:29;;;;;;;21.07;15.10;;;-4.00;99.90;;;;;;5113513;28;20459;-62
2022/12/13 07:42:57;;;;;;;25.10;15.57;;;-3.90;99.90;;;;;;5113946;28;20450;-60
2022/12/13 07:45:25;;;;;;;23.60;15.90;;;-3.80;99.90;;;;;;5113550;28;20475;-60
2022/12/13 07:47:52;;;;;;;21.00;16.73;;;-3.80;99.90;;;;;;5113571;28;20456;-60
2022/12/13 07:50:22;;;;;;;23.90;16.00;;;-3.80;99.90;;;;;;5113773;28;20555;-60
2022/12/13 07:52:50;;;;;;;22.13;14.43;;;-3.70;99.90;;;;;;5113385;28;20948;-60
2022/12/13 07:55:20;;;;;;;20.50;14.87;;;-3.70;99.90;;;;;;5113639;28;20450;-60
2022/12/13 07:57:47;;;;;;;27.63;16.00;;;-3.80;99.90;;;;;;5113509;28;20451;-61
2022/12/13 08:00:15;;;;;;;20.93;14.27;;;-3.80;99.90;;;;;;5113594;28;20489;-61
2022/12/13 08:02:43;;;;;;;22.13;15.10;;;-3.70;99.90;;;;;;5113287;28;20454;-60
2022/12/13 08:05:10;;;;;;;22.87;14.30;;;-3.70;99.90;;;;;;5113209;28;20936;-60
2022/12/13 08:07:39;;;;;;;26.47;16.97;;;-3.70;99.90;;;;;;5113681;28;20472;-60
2022/12/13 08:10:07;;;;;;;22.60;15.77;;;-3.60;99.90;;;;;;5113049;28;20478;-61
2022/12/13 08:12:34;;;;;;;28.03;14.63;;;-3.50;99.90;;;;;;5116990;28;20453;-60
2022/12/13 08:15:01;;;;;;;19.53;15.07;;;-3.50;99.90;;;;;;5117400;28;20442;-61
2022/12/13 08:17:29;;;;;;;19.30;14.47;;;-3.40;99.90;;;;;;5117608;28;20443;-61
2022/12/13 08:19:57;;;;;;;18.27;13.63;;;-3.30;99.90;;;;;;5117434;28;20530;-60
2022/12/13 08:22:24;;;;;;;22.80;15.00;;;-3.40;99.90;;;;;;5117245;28;20446;-61
2022/12/13 08:24:53;;;;;;;16.80;12.90;;;-3.40;99.90;;;;;;5117568;28;20446;-61
2022/12/13 08:27:21;;;;;;;22.80;14.50;;;-3.40;99.90;;;;;;5115677;28;20485;-60
2022/12/13 08:29:48;;;;;;;29.00;16.80;;;-3.40;99.90;;;;;;5116592;28;20482;-61
2022/12/13 08:32:16;;;;;;;26.30;15.57;;;-3.40;99.90;;;;;;5116782;28;20463;-61
2022/12/13 08:34:44;;;;;;;21.07;16.33;;;-3.50;99.90;;;;;;5116850;28;20773;-61
2022/12/13 08:37:11;;;;;;;22.10;15.13;;;-3.60;99.90;;;;;;5116869;28;20529;-60
2022/12/13 08:39:40;;;;;;;21.10;14.20;;;-3.60;99.90;;;;;;5116911;28;20469;-61
2022/12/13 08:42:12;;;;;;;22.70;14.87;;;-3.50;99.90;;;;;;5116782;28;20933;-61
2022/12/13 08:44:39;;;;;;;23.20;15.23;;;-3.60;99.90;;;;;;5116662;28;20458;-60
2022/12/13 08:47:07;;;;;;;24.30;17.73;;;-3.60;99.90;;;;;;5117270;28;20535;-61
2022/12/13 08:49:34;;;;;;;21.27;14.83;;;-3.60;99.90;;;;;;5117001;28;20482;-60
2022/12/13 08:52:02;;;;;;;20.07;13.43;;;-3.50;99.90;;;;;;5116591;28;20442;-61
2022/12/13 08:54:33;;;;;;;24.50;16.43;;;-3.50;99.90;;;;;;5116666;28;20442;-61
2022/12/13 08:57:01;;;;;;;23.60;16.10;;;-3.40;99.90;;;;;;5116612;28;20450;-60
2022/12/13 08:59:30;;;;;;;23.10;15.67;;;-3.40;99.90;;;;;;5116647;28;20975;-60
2022/12/13 09:01:58;;;;;;;25.40;16.70;;;-3.30;99.90;;;;;;5116505;28;20447;-60
2022/12/13 09:04:25;;;;;;;17.83;13.60;;;-3.40;99.90;;;;;;5116690;28;20450;-61
2022/12/13 09:06:53;;;;;;;18.43;14.97;;;-3.30;99.90;;;;;;5116610;28;20461;-61
2022/12/13 09:09:20;;;;;;;26.83;15.03;;;-3.30;99.90;;;;;;5116287;28;20466;-61
2022/12/13 09:11:47;;;;;;;25.33;15.00;;;-3.10;99.90;;;;;;5116535;28;20455;-60
2022/12/13 09:14:15;;;;;;;25.30;15.47;;;-3.10;99.90;;;;;;5116625;28;20465;-60
2022/12/13 09:16:43;;;;;;;21.37;15.33;;;-2.90;99.90;;;;;;5116499;28;20455;-60
2022/12/13 09:19:11;;;;;;;29.03;16.70;;;-2.80;99.90;;;;;;5116487;28;20520;-60
2022/12/13 09:21:38;;;;;;;25.03;15.17;;;-2.80;99.90;;;;;;5116152;28;20442;-60
2022/12/13 09:24:06;;;;;;;22.00;15.57;;;-2.80;99.90;;;;;;5115330;28;20458;-61
2022/12/13 09:26:33;;;;;;;21.43;15.50;;;-2.80;99.90;;;;;;5116410;28;20446;-61
2022/12/13 09:29:00;;;;;;;17.63;13.87;;;-2.70;99.90;;;;;;5115994;28;20920;-60
2022/12/13 09:31:28;;;;;;;25.47;14.90;;;-2.70;99.90;;;;;;5116126;28;20478;-60
2022/12/13 09:33:57;;;;;;;23.10;15.57;;;-2.50;99.90;;;;;;5116427;28;20446;-61
2022/12/13 09:36:24;;;;;;;26.03;14.50;;;-2.30;99.90;;;;;;5115811;28;20449;-60
2022/12/13 09:38:53;;;;;;;21.20;14.33;;;-2.30;99.90;;;;;;5115589;28;20996;-60
2022/12/13 09:41:25;;;;;;;22.50;15.23;;;-2.30;99.90;;;;;;5115677;28;20446;-60
2022/12/13 09:43:55;;;;;;;21.73;13.77;;;-2.30;99.90;;;;;;5115651;28;20866;-60
2022/12/13 09:46:29;;;;;;;17.77;13.23;;;-2.20;99.90;;;;;;5115871;28;20433;-60
2022/12/13 09:48:59;;;;;;;23.47;13.70;;;-2.20;99.90;;;;;;5115453;28;20438;-61
2022/12/13 09:51:26;;;;;;;20.40;13.90;;;-2.20;99.90;;;;;;5115441;28;20482;-60
2022/12/13 09:53:55;;;;;;;24.77;12.97;;;-2.10;99.90;;;;;;5115471;28;20447;-60
2022/12/13 09:56:24;;;;;;;18.57;13.30;;;-2.10;99.90;;;;;;5115736;28;20446;-60
2022/12/13 09:58:55;;;;;;;21.57;14.87;;;-2.00;99.90;;;;;;5115365;28;20503;-60
2022/12/13 10:01:22;;;;;;;18.20;13.67;;;-2.10;99.90;;;;;;5115630;28;20507;-60
2022/12/13 10:03:52;;;;;;;19.33;13.10;;;-2.10;99.90;;;;;;5115433;28;20470;-61
2022/12/13 10:06:23;;;;;;;25.37;13.57;;;-1.90;99.90;;;;;;5115018;28;20454;-61
2022/12/13 10:08:53;;;;;;;18.83;12.87;;;-1.80;99.90;;;;;;5114912;28;20450;-60
2022/12/13 10:11:21;;;;;;;16.90;12.80;;;-1.70;99.90;;;;;;5114924;28;20463;-60
2022/12/13 10:13:54;;;;;;;16.70;13.00;;;-1.70;99.90;;;;;;5115022;28;20932;-60
2022/12/13 10:16:28;;;;;;;19.73;12.30;;;-1.40;99.90;;;;;;5114970;28;20431;-60
2022/12/13 10:18:56;;;;;;;17.70;12.50;;;-1.50;99.90;;;;;;5114839;28;20423;-60
2022/12/13 10:21:28;;;;;;;25.43;13.77;;;-1.50;99.90;;;;;;5114889;28;20446;-60
2022/12/13 10:23:57;;;;;;;16.77;12.10;;;-1.50;99.90;;;;;;5114844;28;20922;-60
2022/12/13 10:26:24;;;;;;;20.70;14.43;;;-1.30;99.90;;;;;;5114989;28;20802;-60
2022/12/13 10:29:03;;;;;;;18.80;13.80;;;-1.10;99.90;;;;;;5114971;28;20453;-62
2022/12/13 10:31:38;;;;;;;27.53;14.57;;;-1.30;99.90;;;;;;5114550;28;20951;-60
2022/12/13 10:34:05;;;;;;;24.53;12.47;;;-1.10;99.90;;;;;;5114415;28;20435;-60
2022/12/13 10:36:37;;;;;;;17.77;13.43;;;-0.80;99.90;;;;;;5114508;28;20853;-62
2022/12/13 10:39:05;;;;;;;14.70;11.83;;;-0.40;99.90;;;;;;5114425;28;20478;-60
2022/12/13 10:41:35;;;;;;;17.80;12.27;;;-0.20;99.90;;;;;;5114759;28;20497;-61
2022/12/13 10:44:24;;;;;;;25.30;14.57;;;0.20;99.90;;;;;;5114742;28;20445;-61
2022/12/13 10:47:02;;;;;;;20.33;14.50;;;0.00;99.90;;;;;;5109901;28;20834;-59
2022/12/13 10:49:36;;;;;;;14.90;11.80;;;0.20;99.90;;;;;;5114304;28;20462;-60
2022/12/13 10:52:05;;;;;;;21.87;13.57;;;0.30;99.90;;;;;;5114114;28;20462;-60
2022/12/13 10:54:34;;;;;;;17.53;13.03;;;0.30;99.90;;;;;;5114559;28;20811;-63
2022/12/13 10:57:01;;;;;;;20.30;12.90;;;0.50;99.90;;;;;;5114572;28;20924;-62
2022/12/13 10:59:34;;;;;;;19.30;12.07;;;0.20;99.90;;;;;;5114084;28;20498;-61
2022/12/13 11:02:02;;;;;;;16.83;12.30;;;0.40;99.90;;;;;;5114533;28;20506;-61
2022/12/13 11:04:32;;;;;;;16.00;11.60;;;0.30;99.90;;;;;;5113972;28;20478;-61
2022/12/13 11:07:01;;;;;;;13.43;11.30;;;0.40;99.90;;;;;;5114185;28;20931;-60
2022/12/13 11:09:32;;;;;;;15.73;11.70;;;0.70;99.90;;;;;;5114174;28;21029;-61
2022/12/13 11:12:02;;;;;;;19.10;11.60;;;1.00;99.90;;;;;;5113924;28;20816;-61
2022/12/13 11:14:34;;;;;;;17.73;11.70;;;1.40;99.90;;;;;;5113742;28;20451;-61
2022/12/13 11:17:08;;;;;;;18.00;11.57;;;1.20;99.80;;;;;;5113588;28;20483;-61
2022/12/13 11:19:40;;;;;;;21.33;13.33;;;1.30;99.90;;;;;;5113718;28;20490;-60
2022/12/13 11:22:09;;;;;;;14.60;11.90;;;1.30;99.90;;;;;;5114009;28;20435;-61
2022/12/13 11:24:41;;;;;;;17.50;12.87;;;1.30;99.90;;;;;;5114080;28;20447;-61
2022/12/13 11:27:29;;;;;;;18.93;11.87;;;1.00;99.90;;;;;;5114070;28;20431;-61
2022/12/13 11:30:12;;;;;;;15.30;12.00;;;0.40;99.90;;;;;;5113820;28;20471;-63
2022/12/13 11:33:04;;;;;;;18.87;12.60;;;0.50;99.90;;;;;;5113602;28;20434;-62
2022/12/13 11:35:41;;;;;;;20.90;13.60;;;0.60;99.90;;;;;;5111086;28;20575;-60
2022/12/13 11:38:24;;;;;;;19.73;11.97;;;0.60;99.90;;;;;;5113158;28;20478;-61
2022/12/13 11:40:58;;;;;;;19.57;12.13;;;0.70;99.90;;;;;;5113564;28;20462;-61
2022/12/13 11:43:32;;;;;;;21.07;12.67;;;0.70;99.90;;;;;;5113340;28;20946;-61
2022/12/13 11:46:02;;;;;;;19.50;12.60;;;0.60;99.90;;;;;;5113328;28;20427;-61
2022/12/13 11:48:41;;;;;;;15.97;10.50;;;0.60;99.90;;;;;;5113428;28;20958;-62
2022/12/13 11:51:11;;;;;;;16.90;12.40;;;0.70;99.90;;;;;;5113269;28;20512;-62
2022/12/13 11:53:48;;;;;;;17.53;12.70;;;0.90;99.90;;;;;;5113192;28;20434;-60
2022/12/13 11:56:24;;;;;;;27.63;12.83;;;0.90;99.90;;;;;;5113339;28;20430;-60
2022/12/13 11:58:58;;;;;;;20.33;13.53;;;0.80;99.90;;;;;;5113254;28;20463;-60
2022/12/13 12:01:32;;;;;;;16.43;13.17;;;0.70;99.90;;;;;;5113394;28;20502;-60
2022/12/13 12:04:07;;;;;;;14.13;11.50;;;0.60;99.90;;;;;;5113171;28;20423;-60
2022/12/13 12:06:41;;;;;;;20.00;13.30;;;0.40;99.90;;;;;;5112890;28;20423;-60
2022/12/13 12:09:14;;;;;;;20.93;14.03;;;0.30;99.90;;;;;;5112922;28;20494;-60
2022/12/13 12:11:48;;;;;;;20.37;13.00;;;0.30;99.90;;;;;;5112801;28;20462;-60
2022/12/13 12:14:22;;;;;;;24.60;13.60;;;0.30;99.90;;;;;;5112964;28;20780;-60
2022/12/13 12:16:53;;;;;;;17.13;12.87;;;0.40;99.90;;;;;;5112934;28;20433;-60
2022/12/13 12:19:22;;;;;;;18.63;13.57;;;0.50;99.90;;;;;;5113111;28;20474;-60
2022/12/13 12:22:05;;;;;;;18.33;13.23;;;0.40;99.90;;;;;;5113163;28;20461;-60
2022/12/13 12:24:43;;;;;;;17.87;13.30;;;0.30;99.90;;;;;;5112872;28;20487;-60
2022/12/13 12:27:27;;;;;;;17.50;13.47;;;0.30;99.90;;;;;;5112926;28;20757;-60
2022/12/13 12:30:19;;;;;;;19.20;12.00;;;0.20;99.90;;;;;;5112709;28;20463;-60
2022/12/13 12:32:53;;;;;;;21.83;13.57;;;0.00;99.90;;;;;;5112614;28;20962;-60
2022/12/13 12:35:45;;;;;;;22.73;13.60;;;0.10;99.90;;;;;;5112953;28;20437;-60
2022/12/13 12:38:25;;;;;;;17.00;13.03;;;0.30;99.90;;;;;;5112745;28;20898;-60
2022/12/13 12:41:14;;;;;;;22.20;14.80;;;0.30;99.90;;;;;;5112473;28;21006;-60
2022/12/13 12:43:43;;;;;;;19.50;12.43;;;0.10;99.90;;;;;;5112621;28;20423;-60
2022/12/13 12:46:27;;;;;;;18.40;13.17;;;0.30;99.90;;;;;;5112781;28;20458;-63
2022/12/13 12:49:23;;;;;;;19.27;12.17;;;0.10;99.90;;;;;;5112638;28;20472;-62
2022/12/13 12:52:01;;;;;;;22.37;13.77;;;0.10;99.90;;;;;;5112372;28;20471;-59